Time;durP1;ratioP1;P1;durP2;ratioP2;P2;SDS_P1;SDS_P2;PMS_P1;PMS_P2;Temp;Humidity;BMP_temperature;BMP_pressure;BME280_temperature;BME280_humidity;BME280_pressure;Samples;Min_cycle;Max_cycle;Signal;HPM_P1;HPM_P2
2023/01/11 00:03:37;;;;;;;31.77;3.87;;;;;;;-11.52;100.00;102777.38;1792418;79;20990;-86
2023/01/11 00:06:05;;;;;;;12.28;3.62;;;;;;;-11.43;100.00;102789.17;1787121;79;20976;-89
2023/01/11 00:08:31;;;;;;;12.20;3.70;;;;;;;-11.41;100.00;102796.47;1786945;79;21016;-87
2023/01/11 00:11:01;;;;;;;11.35;3.77;;;;;;;-11.43;100.00;102800.88;1781995;80;21012;-87
2023/01/11 00:13:27;;;;;;;12.70;3.62;;;;;;;-11.44;100.00;102806.53;1768008;78;21098;-89
2023/01/11 00:15:53;;;;;;;16.73;4.17;;;;;;;-11.39;100.00;102801.59;1775666;79;21085;-87
2023/01/11 00:18:19;;;;;;;12.82;4.42;;;;;;;-11.41;100.00;102796.89;1782208;79;21058;-87
2023/01/11 00:20:45;;;;;;;16.02;4.12;;;;;;;-11.39;100.00;102788.12;1782423;79;22183;-92
2023/01/11 00:23:12;;;;;;;12.35;3.65;;;;;;;-11.37;100.00;102791.97;1781082;80;21064;-87
2023/01/11 00:25:38;;;;;;;15.78;4.12;;;;;;;-11.35;100.00;102796.64;1778774;79;21111;-90
2023/01/11 00:28:06;;;;;;;9.68;3.75;;;;;;;-11.38;100.00;102787.66;1783809;80;21020;-88
2023/01/11 00:30:34;;;;;;;13.22;4.08;;;;;;;-11.34;100.00;102791.39;1767037;79;21213;-87
2023/01/11 00:33:00;;;;;;;13.78;4.45;;;;;;;-11.33;100.00;102792.23;1781775;77;21142;-87
2023/01/11 00:35:29;;;;;;;14.03;3.62;;;;;;;-11.30;100.00;102805.11;1814366;77;21063;-87
2023/01/11 00:37:55;;;;;;;11.75;3.92;;;;;;;-11.27;100.00;102788.91;1817112;78;20997;-91
2023/01/11 00:40:22;;;;;;;20.77;4.35;;;;;;;-11.30;100.00;102787.73;1796727;78;21020;-89
2023/01/11 00:48:18;;;;;;;17.12;4.33;;;;;;;-11.23;100.00;102777.94;1808867;77;21024;-86
2023/01/11 00:50:44;;;;;;;14.33;4.37;;;;;;;-11.31;100.00;102793.02;1781539;79;21119;-86
2023/01/11 00:53:11;;;;;;;9.98;4.35;;;;;;;-11.24;100.00;102774.92;1781631;79;21033;-88
2023/01/11 00:55:37;;;;;;;10.95;4.30;;;;;;;-11.28;100.00;102773.38;1797962;78;21058;-85
2023/01/11 00:58:04;;;;;;;10.30;3.92;;;;;;;-11.25;100.00;102768.05;1789507;78;20995;-87
2023/01/11 01:00:30;;;;;;;14.18;4.22;;;;;;;-11.28;100.00;102764.27;1805274;77;21535;-87
2023/01/11 01:06:37;;;;;;;12.28;4.42;;;;;;;-11.22;100.00;102758.80;1791058;78;21057;-85
2023/01/11 01:09:03;;;;;;;15.00;4.83;;;;;;;-11.22;100.00;102770.05;1770767;79;21019;-86
2023/01/11 01:11:29;;;;;;;13.50;4.95;;;;;;;-11.23;100.00;102770.98;1782626;79;21024;-87
2023/01/11 01:20:23;;;;;;;12.78;4.53;;;;;;;-11.20;100.00;102783.02;1804273;78;21477;-87
2023/01/11 01:22:50;;;;;;;13.10;4.55;;;;;;;-11.25;100.00;102786.25;1796289;79;21028;-87
2023/01/11 01:25:16;;;;;;;15.13;4.85;;;;;;;-11.24;100.00;102787.48;1792181;78;21020;-85
2023/01/11 01:27:42;;;;;;;12.58;5.03;;;;;;;-11.18;100.00;102789.44;1800319;78;20984;-87
2023/01/11 01:33:49;;;;;;;13.10;4.70;;;;;;;-11.13;100.00;102781.00;1767270;79;20953;-87
2023/01/11 01:36:15;;;;;;;16.27;4.30;;;;;;;-11.13;100.00;102786.20;1791812;79;20986;-91
2023/01/11 01:38:42;;;;;;;13.90;4.85;;;;;;;-11.07;100.00;102789.84;1804318;77;21478;-87
2023/01/11 01:41:11;;;;;;;16.02;5.35;;;;;;;-11.13;100.00;102782.30;1785218;79;21008;-86
2023/01/11 01:47:29;;;;;;;13.22;5.08;;;;;;;-11.08;100.00;102790.30;1799633;78;21005;-86
2023/01/11 01:49:58;;;;;;;13.50;4.65;;;;;;;-11.07;100.00;102791.14;1743430;81;21003;-88
2023/01/11 01:55:57;;;;;;;14.78;5.53;;;;;;;-11.13;100.00;102785.73;1736245;80;21142;-88
2023/01/11 01:58:30;;;;;;;13.90;4.80;;;;;;;-11.06;100.00;102787.62;1728899;81;21306;-87
2023/01/11 02:01:45;;;;;;;12.25;5.10;;;;;;;-11.04;100.00;102781.91;1694211;82;21534;-85
2023/01/11 02:03:26;;;;;;;15.20;4.80;;;;;;;-11.05;100.00;102785.42;1729794;80;21047;-87
2023/01/11 02:05:53;;;;;;;13.22;4.67;;;;;;;-11.08;100.00;102794.20;1741890;80;21659;-87
2023/01/11 02:08:32;;;;;;;17.92;4.90;;;;;;;-11.09;100.00;102789.89;1731196;80;21764;-86
2023/01/11 02:10:59;;;;;;;14.38;4.87;;;;;;;-11.07;100.00;102796.34;1738985;81;20999;-86
2023/01/11 02:13:26;;;;;;;14.28;4.80;;;;;;;-11.04;100.00;102791.02;1742587;80;21490;-87
2023/01/11 02:16:06;;;;;;;13.38;4.55;;;;;;;-11.02;100.00;102788.73;1732777;81;21055;-87
2023/01/11 02:18:22;;;;;;;14.25;4.97;;;;;;;-10.98;100.00;102785.55;1737114;81;21039;-87
2023/01/11 02:21:09;;;;;;;14.03;4.60;;;;;;;-10.98;100.00;102788.14;1740123;81;20959;-87
2023/01/11 02:23:52;;;;;;;10.60;4.30;;;;;;;-10.96;100.00;102786.33;1749115;80;21214;-87
2023/01/11 02:27:03;;;;;;;16.20;4.35;;;;;;;-10.92;100.00;102770.12;1740898;79;20977;-87
2023/01/11 02:29:53;;;;;;;15.10;4.55;;;;;;;-10.88;100.00;102783.38;1791096;78;21066;-87
2023/01/11 02:32:30;;;;;;;15.60;4.28;;;;;;;-10.82;100.00;102789.19;1763805;80;21027;-86
2023/01/11 02:35:02;;;;;;;9.68;3.90;;;;;;;-10.73;100.00;102794.88;1739839;81;21524;-84
2023/01/11 02:37:56;;;;;;;15.23;5.15;;;;;;;-10.70;100.00;102792.17;1739614;81;21474;-86
2023/01/11 02:41:08;;;;;;;12.00;4.17;;;;;;;-10.76;100.00;102790.22;1744750;81;21059;-87
2023/01/11 02:47:00;;;;;;;13.88;3.95;;;;;;;-10.81;100.00;102786.13;1664979;85;21084;-87
2023/01/11 02:49:41;;;;;;;11.68;3.85;;;;;;;-10.76;100.00;102801.94;1676601;85;20975;-85
2023/01/11 02:52:19;;;;;;;11.80;3.95;;;;;;;-10.71;100.00;102790.00;1668466;84;22437;-83
2023/01/11 02:58:31;;;;;;;11.08;4.28;;;;;;;-10.57;100.00;102794.61;1599218;87;21128;-89
2023/01/11 03:00:58;;;;;;;9.58;3.02;;;;;;;-10.57;100.00;102804.57;1607733;88;21400;-85
2023/01/11 03:03:28;;;;;;;9.83;3.85;;;;;;;-10.53;100.00;102806.58;1608493;88;21061;-87
2023/01/11 03:06:05;;;;;;;9.50;3.90;;;;;;;-10.49;100.00;102797.73;1606707;87;21370;-87
2023/01/11 03:09:11;;;;;;;11.73;4.25;;;;;;;-10.56;100.00;102792.39;1605793;88;21107;-87
2023/01/11 03:15:36;;;;;;;15.83;5.03;;;;;;;-10.59;100.00;102799.03;1555933;90;21737;-86
2023/01/11 03:18:34;;;;;;;13.22;3.75;;;;;;;-10.58;100.00;102787.27;1557315;91;21046;-85
2023/01/11 03:21:08;;;;;;;13.08;4.17;;;;;;;-10.63;100.00;102778.80;1563922;90;21144;-86
2023/01/11 03:23:58;;;;;;;8.58;3.00;;;;;;;-10.59;100.00;102784.70;1576818;89;21134;-88
2023/01/11 03:26:48;;;;;;;12.13;4.05;;;;;;;-10.58;100.00;102778.14;1580433;89;20977;-87
2023/01/11 03:29:37;;;;;;;13.72;4.15;;;;;;;-10.60;100.00;102790.84;1583753;89;21126;-91
2023/01/11 03:32:39;;;;;;;11.78;4.65;;;;;;;-10.61;100.00;102796.52;1584929;89;21576;-86
2023/01/11 03:35:27;;;;;;;8.93;4.20;;;;;;;-10.63;100.00;102790.52;1498337;95;21875;-88
2023/01/11 03:41:37;;;;;;;6.90;3.08;;;;;;;-10.60;100.00;102796.89;1438411;98;21664;-87
2023/01/11 03:44:07;;;;;;;11.40;4.25;;;;;;;-10.55;100.00;102791.49;1477655;95;21074;-87
2023/01/11 03:46:51;;;;;;;11.95;3.85;;;;;;;-10.53;100.00;102800.94;1473257;95;22671;-87
2023/01/11 03:49:30;;;;;;;8.58;3.10;;;;;;;-10.49;100.00;102803.41;1472549;96;21211;-86
2023/01/11 03:51:59;;;;;;;12.07;3.70;;;;;;;-10.48;100.00;102792.90;1573710;88;21123;-93
2023/01/11 03:54:29;;;;;;;9.30;3.87;;;;;;;-10.39;100.00;102809.42;1565228;90;21681;-90
2023/01/11 03:57:15;;;;;;;7.40;3.37;;;;;;;-10.36;100.00;102804.53;1562766;89;21126;-90
2023/01/11 04:03:22;;;;;;;9.65;3.80;;;;;;;-10.22;100.00;102802.11;1557420;89;21794;-86
2023/01/11 04:05:52;;;;;;;12.63;4.92;;;;;;;-10.26;100.00;102797.13;1564770;89;21160;-87
2023/01/11 04:08:19;;;;;;;15.08;5.60;;;;;;;-10.34;100.00;102790.52;1581904;89;21573;-86
2023/01/11 04:10:45;;;;;;;14.95;5.70;;;;;;;-10.66;100.00;102792.42;1653182;84;21577;-89
2023/01/11 04:13:11;;;;;;;16.77;6.00;;;;;;;-10.84;100.00;102794.91;1659431;85;22292;-87
2023/01/11 04:15:37;;;;;;;20.50;6.00;;;;;;;-10.99;100.00;102795.58;1639224;85;21508;-86
2023/01/11 04:18:05;;;;;;;15.72;6.17;;;;;;;-11.08;100.00;102793.37;1660787;84;21249;-86
2023/01/11 04:20:35;;;;;;;15.13;6.15;;;;;;;-11.08;100.00;102785.09;1656048;85;21125;-87
2023/01/11 04:23:02;;;;;;;16.97;6.08;;;;;;;-11.16;100.00;102783.73;1645164;85;21135;-87
2023/01/11 04:25:29;;;;;;;14.68;6.03;;;;;;;-11.20;100.00;102785.62;1647845;84;21113;-86
2023/01/11 04:27:55;;;;;;;19.50;6.42;;;;;;;-11.24;100.00;102780.13;1639291;85;22066;-87
2023/01/11 04:30:21;;;;;;;18.73;6.40;;;;;;;-11.22;100.00;102782.22;1661192;84;21592;-87
2023/01/11 04:32:48;;;;;;;19.07;6.65;;;;;;;-11.16;100.00;102785.87;1669303;84;21523;-86
2023/01/11 04:35:15;;;;;;;18.35;6.50;;;;;;;-11.16;100.00;102781.97;1745700;78;21614;-92
2023/01/11 04:37:41;;;;;;;19.02;6.10;;;;;;;-11.18;100.00;102782.47;1795983;77;20983;-88
2023/01/11 04:40:09;;;;;;;19.12;5.95;;;;;;;-11.23;100.00;102776.64;1803253;78;21773;-84
2023/01/11 04:42:35;;;;;;;17.92;6.20;;;;;;;-11.15;100.00;102793.22;1786641;78;20991;-88
2023/01/11 04:45:04;;;;;;;19.67;6.70;;;;;;;-11.10;100.00;102799.92;1803441;77;21090;-87
2023/01/11 04:47:30;;;;;;;24.52;6.72;;;;;;;-11.06;100.00;102798.91;1804221;78;20983;-86
2023/01/11 04:49:56;;;;;;;17.25;6.17;;;;;;;-11.09;100.00;102802.06;1788745;78;20992;-88
2023/01/11 04:52:22;;;;;;;16.87;6.00;;;;;;;-11.22;100.00;102801.28;1798229;78;21990;-84
2023/01/11 04:54:51;;;;;;;18.20;6.08;;;;;;;-11.26;100.00;102804.94;1798518;78;21004;-86
2023/01/11 04:57:18;;;;;;;17.73;5.80;;;;;;;-11.37;100.00;102812.33;1781729;78;21511;-89
2023/01/11 04:59:47;;;;;;;16.35;6.22;;;;;;;-11.46;100.00;102808.80;1795588;79;21488;-86
2023/01/11 05:02:14;;;;;;;17.62;5.87;;;;;;;-11.48;100.00;102810.61;1793651;78;20981;-90
2023/01/11 05:04:41;;;;;;;16.87;6.05;;;;;;;-11.58;100.00;102815.80;1787393;78;21212;-87
2023/01/11 05:07:08;;;;;;;20.43;6.47;;;;;;;-11.62;100.00;102812.91;1775873;78;21103;-84
2023/01/11 05:09:34;;;;;;;17.27;5.42;;;;;;;-11.69;100.00;102817.52;1796400;78;21086;-87
2023/01/11 05:12:01;;;;;;;19.07;6.90;;;;;;;-11.72;100.00;102821.53;1791866;77;21018;-88
2023/01/11 05:14:27;;;;;;;14.25;5.97;;;;;;;-11.73;100.00;102804.25;1796962;78;21223;-86
2023/01/11 05:16:53;;;;;;;13.13;5.03;;;;;;;-11.80;100.00;102806.69;1804290;77;22015;-86
2023/01/11 05:19:20;;;;;;;12.35;5.47;;;;;;;-11.83;100.00;102801.15;1804742;77;20984;-86
2023/01/11 05:21:47;;;;;;;18.27;5.50;;;;;;;-11.88;100.00;102798.36;1805062;78;21601;-86
2023/01/11 05:24:16;;;;;;;15.93;5.85;;;;;;;-11.90;100.00;102795.38;1800211;78;21541;-91
2023/01/11 05:26:45;;;;;;;19.92;6.60;;;;;;;-11.90;100.00;102801.04;1774528;79;20928;-87
2023/01/11 05:29:15;;;;;;;13.95;5.75;;;;;;;-11.89;100.00;102802.72;1811786;77;21113;-86
2023/01/11 05:31:41;;;;;;;16.48;5.95;;;;;;;-11.92;100.00;102804.98;1808767;77;21040;-87
2023/01/11 05:34:10;;;;;;;16.27;5.85;;;;;;;-11.90;100.00;102808.84;1804386;77;21557;-85
2023/01/11 05:36:36;;;;;;;18.35;6.53;;;;;;;-11.92;100.00;102811.94;1776761;79;21465;-91
2023/01/11 05:39:04;;;;;;;16.90;6.08;;;;;;;-11.91;100.00;102809.72;1783103;79;21575;-87
2023/01/11 05:41:31;;;;;;;17.90;6.53;;;;;;;-11.92;100.00;102812.78;1799669;78;20993;-85
2023/01/11 08:16:43;;;;;;;9.68;3.62;;;;;;;0.98;57.09;102772.15;1750645;80;21139;-92
2023/01/11 08:19:09;;;;;;;16.23;4.70;;;;;;;1.56;53.10;102782.11;1754428;80;21078;-93
2023/01/11 08:21:35;;;;;;;21.77;5.95;;;;;;;1.06;52.81;102788.18;1751543;80;21554;-89
2023/01/11 08:24:02;;;;;;;20.48;5.00;;;;;;;1.19;52.20;102785.23;1752594;80;21042;-90
2023/01/11 08:26:28;;;;;;;20.10;6.45;;;;;;;1.19;51.92;102775.45;1774112;80;21000;-89
2023/01/11 08:28:54;;;;;;;8.50;2.52;;;;;;;0.94;53.64;102790.64;1761688;80;21051;-86
2023/01/11 08:31:21;;;;;;;8.68;3.27;;;;;;;1.12;53.12;102773.86;1760337;80;21114;-89
2023/01/11 08:33:51;;;;;;;9.63;2.75;;;;;;;1.83;51.59;102786.27;1766103;80;21478;-87
2023/01/11 08:36:17;;;;;;;10.18;2.62;;;;;;;0.43;51.77;102792.63;1763525;80;21004;-86
2023/01/11 08:38:44;;;;;;;12.75;2.90;;;;;;;-1.03;53.42;102786.79;1761161;80;21094;-93
2023/01/11 08:41:10;;;;;;;5.65;2.30;;;;;;;-2.03;56.14;102792.77;1772067;80;21508;-87
2023/01/11 08:43:37;;;;;;;14.70;3.20;;;;;;;-2.70;58.19;102786.20;1768260;80;21140;-87
2023/01/11 08:46:04;;;;;;;12.75;3.67;;;;;;;-3.12;58.67;102803.83;1757893;80;21055;-86
2023/01/11 08:48:30;;;;;;;20.12;4.28;;;;;;;-3.73;60.99;102801.31;1755996;80;21033;-88
2023/01/11 08:50:56;;;;;;;20.90;3.77;;;;;;;-3.95;63.02;102800.69;1765724;80;20973;-87
2023/01/11 08:53:22;;;;;;;15.38;3.33;;;;;;;-4.20;64.28;102799.45;1765278;80;21007;-88
2023/01/11 08:55:50;;;;;;;12.43;3.00;;;;;;;-4.49;67.13;102815.96;1770237;80;21500;-91
2023/01/11 08:58:17;;;;;;;10.50;3.37;;;;;;;-4.56;68.17;102798.42;1764875;80;21555;-87
2023/01/11 09:00:44;;;;;;;26.95;4.40;;;;;;;-4.77;71.02;102792.84;1779655;80;21512;-88
2023/01/11 09:03:11;;;;;;;10.72;2.72;;;;;;;-4.89;73.05;102795.84;1777618;80;21039;-87
2023/01/11 09:05:39;;;;;;;9.85;3.02;;;;;;;-4.86;75.14;102796.11;1765858;80;21507;-88
2023/01/11 09:08:07;;;;;;;10.30;2.30;;;;;;;-4.88;76.86;102785.71;1758987;80;21227;-87
2023/01/11 09:10:34;;;;;;;7.83;2.72;;;;;;;-4.92;77.69;102784.22;1758998;81;20992;-87
2023/01/11 09:13:01;;;;;;;13.93;4.62;;;;;;;-4.92;79.84;102778.95;1757735;80;21030;-87
2023/01/11 09:15:27;;;;;;;7.97;2.83;;;;;;;-4.93;81.82;102766.77;1777742;80;21523;-88
2023/01/11 09:17:54;;;;;;;8.73;2.50;;;;;;;-4.87;84.03;102774.72;1762782;80;21034;-92
2023/01/11 09:20:21;;;;;;;8.73;2.42;;;;;;;-4.86;85.39;102779.02;1754230;80;22402;-87
2023/01/11 09:22:52;;;;;;;10.90;2.65;;;;;;;-4.76;86.46;102772.20;1754025;80;20937;-86
2023/01/11 09:25:19;;;;;;;10.95;3.27;;;;;;;-4.72;87.39;102774.97;1742830;80;21536;-89
2023/01/11 09:27:47;;;;;;;11.03;2.65;;;;;;;-4.64;84.19;102766.09;1755723;80;21051;-87
2023/01/11 09:30:19;;;;;;;6.65;2.50;;;;;;;-4.76;86.34;102755.11;1755618;80;21044;-91
2023/01/11 09:32:47;;;;;;;10.20;2.50;;;;;;;-4.80;86.14;102775.48;1756042;80;21302;-88
2023/01/11 09:35:15;;;;;;;15.15;4.85;;;;;;;-4.87;88.63;102797.06;1760724;80;20996;-87
2023/01/11 09:37:51;;;;;;;17.70;4.75;;;;;;;-4.70;87.09;102773.09;1730272;81;20997;-88
2023/01/11 09:40:21;;;;;;;19.35;4.67;;;;;;;-4.73;88.22;102761.47;1678986;84;21155;-86
2023/01/11 09:42:53;;;;;;;18.90;5.05;;;;;;;-4.62;88.16;102759.39;1658957;85;21111;-87
2023/01/11 09:45:26;;;;;;;13.10;3.05;;;;;;;-4.58;88.85;102763.50;1638435;85;21204;-88
2023/01/11 09:50:42;;;;;;;6.95;2.40;;;;;;;-4.53;87.48;102754.80;1530852;91;21131;-86
2023/01/11 09:53:13;;;;;;;9.58;2.60;;;;;;;-4.48;87.99;102763.22;1539933;91;21154;-88
2023/01/11 09:55:46;;;;;;;6.15;2.02;;;;;;;-4.39;87.55;102755.98;1455935;96;21170;-88
2023/01/11 09:58:45;;;;;;;10.68;2.77;;;;;;;-4.51;89.41;102734.49;1472274;96;21184;-87
2023/01/11 10:01:34;;;;;;;6.60;2.12;;;;;;;-4.50;90.29;102736.64;1457219;97;21155;-87
2023/01/11 10:04:24;;;;;;;8.13;2.65;;;;;;;-4.45;89.01;102741.95;1385140;100;21809;-88
2023/01/11 10:07:21;;;;;;;15.63;3.65;;;;;;;-4.41;88.88;102731.59;1391882;101;21199;-87
2023/01/11 10:10:22;;;;;;;12.25;3.45;;;;;;;-4.40;89.15;102732.43;1410272;99;21305;-85
2023/01/11 10:13:05;;;;;;;10.28;2.95;;;;;;;-4.41;89.67;102740.80;1409966;100;22213;-92
2023/01/11 10:15:37;;;;;;;10.13;2.50;;;;;;;-4.40;90.09;102729.80;1408249;99;21199;-89
2023/01/11 10:18:43;;;;;;;8.93;2.30;;;;;;;-4.38;92.22;102722.65;1424242;98;21153;-86
2023/01/11 10:21:36;;;;;;;11.93;3.02;;;;;;;-4.30;90.33;102720.77;1405603;101;22550;-89
2023/01/11 10:24:11;;;;;;;9.78;2.90;;;;;;;-4.29;90.78;102714.54;1408571;100;21183;-89
2023/01/11 10:26:40;;;;;;;12.37;2.85;;;;;;;-4.30;91.11;102712.88;1370862;103;22159;-89
2023/01/11 14:12:07;;;;;;;9.05;3.10;;;;;;;-5.83;100.00;102651.98;1785904;79;26171;-90
2023/01/11 14:14:54;;;;;;;8.00;2.30;;;;;;;-5.84;100.00;102670.00;1748720;81;21097;-88
2023/01/11 14:17:46;;;;;;;12.50;3.50;;;;;;;-5.75;100.00;102651.84;1746542;81;21777;-96
2023/01/11 14:20:30;;;;;;;13.50;4.40;;;;;;;-5.67;100.00;102659.23;1737709;81;21494;-88
2023/01/11 14:23:04;;;;;;;9.63;3.67;;;;;;;-5.63;100.00;102672.98;1747276;81;20940;-90
2023/01/11 14:26:11;;;;;;;15.43;3.90;;;;;;;-5.63;100.00;102679.08;1747586;81;21021;-88
2023/01/11 14:29:01;;;;;;;12.60;2.95;;;;;;;-5.61;100.00;102672.42;1754792;80;21024;-93
2023/01/11 14:31:58;;;;;;;15.60;3.10;;;;;;;-5.59;100.00;102671.38;1756891;81;21085;-89
2023/01/11 14:34:49;;;;;;;18.60;3.10;;;;;;;-5.63;100.00;102672.98;1760988;80;20965;-88
2023/01/11 14:37:51;;;;;;;7.70;2.58;;;;;;;-5.69;100.00;102675.55;1770722;80;20947;-89
2023/01/11 14:40:41;;;;;;;11.48;2.10;;;;;;;-5.77;100.00;102677.35;1755398;80;21014;-91
2023/01/11 14:43:18;;;;;;;11.70;2.30;;;;;;;-5.81;100.00;102671.95;1768902;81;21457;-89
2023/01/11 14:46:07;;;;;;;19.48;4.78;;;;;;;-5.83;100.00;102668.58;1764970;80;21834;-90
2023/01/11 14:49:01;;;;;;;16.48;3.33;;;;;;;-5.86;100.00;102677.13;1755002;80;21624;-89
2023/01/11 14:51:48;;;;;;;16.77;4.70;;;;;;;-5.90;100.00;102684.84;1752603;80;21607;-88
2023/01/11 14:54:22;;;;;;;13.95;4.97;;;;;;;-5.99;100.00;102687.16;1688298;83;21083;-90
2023/01/11 14:56:55;;;;;;;9.70;3.00;;;;;;;-6.07;100.00;102682.86;1681159;83;21165;-89
2023/01/11 14:59:40;;;;;;;11.05;2.83;;;;;;;-6.10;100.00;102688.31;1700739;82;21444;-86
2023/01/11 15:02:11;;;;;;;16.35;3.40;;;;;;;-6.20;100.00;102692.48;1686738;83;21010;-90
2023/01/11 15:04:53;;;;;;;10.38;3.80;;;;;;;-6.22;100.00;102697.81;1681306;82;21110;-89
2023/01/11 15:07:35;;;;;;;13.55;3.55;;;;;;;-6.33;100.00;102695.50;1666995;85;21117;-88
2023/01/11 15:10:23;;;;;;;16.65;3.22;;;;;;;-6.31;100.00;102693.63;1663437;84;21209;-91
2023/01/11 15:12:49;;;;;;;10.25;3.12;;;;;;;-6.40;100.00;102699.83;1619163;87;21474;-89
2023/01/11 15:15:20;;;;;;;12.37;3.85;;;;;;;-6.45;100.00;102703.20;1618353;87;21052;-88
2023/01/11 15:21:02;;;;;;;16.30;3.85;;;;;;;-6.50;100.00;102713.60;1612976;88;21065;-93
2023/01/11 15:23:36;;;;;;;12.07;3.17;;;;;;;-6.56;100.00;102710.89;1618312;87;21048;-91
2023/01/11 15:26:08;;;;;;;21.27;4.85;;;;;;;-6.54;100.00;102704.25;1613470;88;22063;-88
2023/01/11 15:28:51;;;;;;;15.63;3.72;;;;;;;-6.55;100.00;102699.95;1569484;90;21514;-89
2023/01/11 15:31:37;;;;;;;8.35;2.83;;;;;;;-6.59;100.00;102711.08;1514687;93;21115;-89
2023/01/11 15:34:26;;;;;;;10.23;3.30;;;;;;;-6.56;100.00;102710.05;1504716;94;21490;-89
2023/01/11 15:37:23;;;;;;;13.65;3.65;;;;;;;-6.54;100.00;102717.37;1501708;94;21200;-90
2023/01/11 15:40:06;;;;;;;8.90;2.77;;;;;;;-6.51;100.00;102714.55;1500525;94;21221;-93
2023/01/11 15:43:07;;;;;;;10.08;2.70;;;;;;;-6.54;100.00;102715.58;1496420;94;21126;-87
2023/01/11 15:49:05;;;;;;;13.08;2.85;;;;;;;-6.52;100.00;102697.14;1500392;94;21084;-87
2023/01/11 15:51:45;;;;;;;10.95;2.85;;;;;;;-6.50;100.00;102702.67;1498369;94;21857;-87
2023/01/11 15:54:19;;;;;;;6.55;2.50;;;;;;;-6.49;100.00;102696.95;1483220;96;21203;-88
2023/01/11 15:57:21;;;;;;;12.90;3.52;;;;;;;-6.47;100.00;102702.92;1480565;96;21065;-88
2023/01/11 16:00:28;;;;;;;15.90;3.45;;;;;;;-6.45;100.00;102706.30;1478721;97;21121;-88
2023/01/11 16:03:21;;;;;;;10.82;3.00;;;;;;;-6.48;100.00;102699.45;1478647;96;21100;-89
2023/01/11 16:06:13;;;;;;;11.55;3.30;;;;;;;-6.46;100.00;102705.94;1480857;96;21133;-89
2023/01/11 16:09:07;;;;;;;11.70;3.00;;;;;;;-6.48;100.00;102723.06;1369242;104;21724;-88
2023/01/11 16:12:01;;;;;;;9.63;3.25;;;;;;;-6.47;100.00;102722.14;1336147;105;21177;-87
2023/01/11 16:15:02;;;;;;;9.93;3.33;;;;;;;-6.48;100.00;102723.06;1287620;108;21183;-87
2023/01/11 16:17:29;;;;;;;10.95;3.42;;;;;;;-6.47;100.00;102714.28;1296921;109;21188;-87
2023/01/11 16:19:55;;;;;;;11.18;2.83;;;;;;;-6.48;100.00;102736.17;1300505;107;21245;-92
2023/01/11 16:22:27;;;;;;;7.08;2.62;;;;;;;-6.43;100.00;102731.97;1301812;108;21831;-87
2023/01/11 16:24:58;;;;;;;16.70;4.05;;;;;;;-6.39;100.00;102729.52;1282171;107;21670;-88
2023/01/11 16:27:32;;;;;;;11.00;3.17;;;;;;;-6.44;100.00;102730.27;1313201;106;21157;-86
2023/01/11 16:29:58;;;;;;;8.53;3.12;;;;;;;-6.40;100.00;102727.84;1358920;104;21130;-87
2023/01/11 16:34:59;;;;;;;10.68;3.12;;;;;;;-6.39;100.00;102728.20;1345082;104;21665;-88
2023/01/11 16:37:44;;;;;;;9.55;2.47;;;;;;;-6.35;100.00;102732.34;1346643;104;21216;-88
2023/01/11 16:40:24;;;;;;;14.87;2.92;;;;;;;-6.33;100.00;102721.73;1343391;104;21201;-88
2023/01/11 16:43:17;;;;;;;8.15;2.72;;;;;;;-6.36;100.00;102728.01;1339237;105;21349;-88
2023/01/11 16:45:47;;;;;;;9.55;2.60;;;;;;;-6.34;100.00;102718.75;1363376;104;21705;-88
2023/01/11 16:48:26;;;;;;;10.28;2.92;;;;;;;-6.35;100.00;102718.35;1406230;97;21465;-89
2023/01/11 16:51:01;;;;;;;9.05;3.17;;;;;;;-6.30;100.00;102720.22;1459702;97;21565;-87
2023/01/11 16:53:33;;;;;;;8.68;2.77;;;;;;;-6.31;100.00;102726.42;1456755;97;21175;-88
2023/01/11 16:56:07;;;;;;;9.60;2.77;;;;;;;-6.26;100.00;102724.36;1458560;97;21530;-88
2023/01/11 16:58:40;;;;;;;12.33;3.02;;;;;;;-6.26;100.00;102726.51;1458040;97;21607;-87
2023/01/11 17:01:12;;;;;;;10.58;3.33;;;;;;;-6.21;100.00;102725.72;1458054;97;21526;-87
2023/01/11 17:03:54;;;;;;;13.20;3.37;;;;;;;-6.22;100.00;102723.21;1458180;97;21084;-88
2023/01/11 17:06:25;;;;;;;11.12;3.42;;;;;;;-6.24;100.00;102715.90;1460055;96;21703;-88
2023/01/11 17:08:56;;;;;;;9.35;3.30;;;;;;;-6.21;100.00;102734.91;1458134;97;21101;-93
2023/01/11 17:14:42;;;;;;;6.17;2.62;;;;;;;-6.15;100.00;102728.43;1402032;101;21754;-88
2023/01/11 17:17:10;;;;;;;8.13;2.65;;;;;;;-6.21;100.00;102711.77;1399035;101;21106;-88
2023/01/11 17:19:44;;;;;;;12.18;2.83;;;;;;;-6.19;100.00;102709.42;1369733;104;21069;-88
2023/01/11 17:22:22;;;;;;;7.67;3.00;;;;;;;-6.17;100.00;102719.84;1318217;106;21236;-93
2023/01/11 17:28:29;;;;;;;11.22;2.67;;;;;;;-6.07;100.00;102716.14;1326057;106;21133;-88
2023/01/11 17:30:56;;;;;;;11.57;2.95;;;;;;;-6.07;100.00;102714.36;1309081;107;21251;-87
2023/01/11 17:33:31;;;;;;;18.35;2.87;;;;;;;-6.03;100.00;102709.30;1306087;108;21181;-85
2023/01/11 17:35:59;;;;;;;12.30;3.02;;;;;;;-6.03;100.00;102713.23;1304953;108;21144;-88
2023/01/11 17:38:27;;;;;;;16.17;3.58;;;;;;;-6.04;100.00;102713.32;1310945;106;21136;-88
2023/01/11 17:40:55;;;;;;;15.72;4.55;;;;;;;-6.02;100.00;102712.28;1350696;104;21152;-88
2023/01/11 17:49:58;;;;;;;10.90;3.35;;;;;;;-5.95;100.00;102704.37;1356476;104;21214;-88
2023/01/11 17:52:25;;;;;;;14.23;3.75;;;;;;;-5.83;100.00;102702.70;1351961;105;21200;-88
2023/01/11 17:55:18;;;;;;;20.75;4.97;;;;;;;-5.85;100.00;102711.17;1357600;104;21232;-85
2023/01/11 17:58:15;;;;;;;15.55;4.72;;;;;;;-5.89;100.00;102699.17;1285084;109;21299;-88
2023/01/11 18:00:46;;;;;;;16.52;4.85;;;;;;;-5.90;100.00;102687.47;1345120;105;21136;-85
2023/01/11 18:03:17;;;;;;;22.82;5.22;;;;;;;-5.77;100.00;102705.40;1334571;105;21141;-85
2023/01/11 18:05:43;;;;;;;20.05;5.40;;;;;;;-5.79;100.00;102694.17;1343294;104;21261;-88
2023/01/11 18:08:20;;;;;;;15.50;4.08;;;;;;;-5.76;100.00;102692.19;1348172;104;21221;-92
2023/01/11 18:18:13;;;;;;;21.15;4.87;;;;;;;-5.82;100.00;102683.41;1421044;94;21642;-88
2023/01/11 18:20:41;;;;;;;16.30;3.35;;;;;;;-5.75;100.00;102689.08;1491597;95;21090;-87
2023/01/11 18:23:15;;;;;;;18.35;4.62;;;;;;;-5.71;100.00;102680.05;1484140;94;21218;-88
2023/01/11 18:25:44;;;;;;;16.65;4.65;;;;;;;-5.67;100.00;102690.73;1499841;94;21193;-88
2023/01/11 18:28:29;;;;;;;19.42;5.37;;;;;;;-5.65;100.00;102682.27;1495996;95;21158;-92
2023/01/11 18:31:00;;;;;;;15.30;3.50;;;;;;;-5.57;100.00;102685.23;1540735;92;21606;-88
2023/01/11 18:33:32;;;;;;;13.93;2.80;;;;;;;-5.55;100.00;102672.84;1522444;94;21140;-87
2023/01/11 18:36:02;;;;;;;10.00;2.70;;;;;;;-5.51;100.00;102679.56;1556235;91;21211;-88
2023/01/11 18:38:32;;;;;;;8.70;3.42;;;;;;;-5.54;100.00;102678.45;1565124;91;21048;-89
2023/01/11 18:43:52;;;;;;;10.38;3.17;;;;;;;-5.49;100.00;102661.09;1483652;96;21185;-92
2023/01/11 18:46:18;;;;;;;10.60;3.60;;;;;;;-5.49;100.00;102662.41;1479352;97;21113;-88
2023/01/11 18:48:44;;;;;;;8.15;3.42;;;;;;;-5.47;100.00;102653.95;1479145;95;21248;-88
2023/01/11 18:51:31;;;;;;;14.87;3.02;;;;;;;-5.45;100.00;102650.73;1479520;96;21152;-94
2023/01/11 18:53:57;;;;;;;8.23;2.95;;;;;;;-5.44;100.00;102660.31;1530317;93;21133;-89
2023/01/11 18:56:23;;;;;;;15.32;3.30;;;;;;;-5.42;100.00;102666.76;1531916;91;21158;-87
2023/01/11 18:58:50;;;;;;;16.57;3.45;;;;;;;-5.41;100.00;102665.80;1529035;93;21134;-88
2023/01/11 19:01:16;;;;;;;18.20;3.50;;;;;;;-5.36;100.00;102663.72;1526905;93;21123;-88
2023/01/11 19:03:43;;;;;;;14.87;3.77;;;;;;;-5.39;100.00;102660.82;1528900;93;21140;-88
2023/01/11 19:06:12;;;;;;;16.40;3.60;;;;;;;-5.38;100.00;102651.14;1529109;92;21133;-88
2023/01/11 19:12:19;;;;;;;16.02;3.33;;;;;;;-5.43;100.00;102655.42;1528597;92;21183;-88
2023/01/11 22:59:35;;;;;;;37.15;7.10;;;;;;;-6.43;100.00;102549.22;1805826;78;25651;-89
2023/01/11 23:02:01;;;;;;;42.90;6.12;;;;;;;-6.40;100.00;102546.39;1751795;80;21105;-88
2023/01/11 23:04:27;;;;;;;34.45;6.28;;;;;;;-6.30;100.00;102550.55;1766259;80;21132;-94
2023/01/11 23:06:54;;;;;;;35.65;6.00;;;;;;;-6.16;100.00;102543.09;1762551;80;21031;-89